sensor_id;sensor_type;location;lat;lon;timestamp;temperature;humidity
18753;DHT22;9505;50.882;5.350;2022-12-18T00:00:46;-7.90;99.90
18753;DHT22;9505;50.882;5.350;2022-12-18T00:03:14;-7.90;99.90
18753;DHT22;9505;50.882;5.350;2022-12-18T00:05:48;-7.90;99.90
18753;DHT22;9505;50.882;5.350;2022-12-18T00:08:14;-7.90;99.90
18753;DHT22;9505;50.882;5.350;2022-12-18T00:10:40;-7.90;99.90
18753;DHT22;9505;50.882;5.350;2022-12-18T00:13:05;-8.00;99.90
18753;DHT22;9505;50.882;5.350;2022-12-18T00:15:34;-8.00;99.90
18753;DHT22;9505;50.882;5.350;2022-12-18T00:17:59;-8.00;99.90
18753;DHT22;9505;50.882;5.350;2022-12-18T00:20:25;-8.10;99.90
18753;DHT22;9505;50.882;5.350;2022-12-18T00:22:52;-8.10;99.90
18753;DHT22;9505;50.882;5.350;2022-12-18T00:25:17;-8.10;99.90
18753;DHT22;9505;50.882;5.350;2022-12-18T00:27:43;-8.10;99.90
18753;DHT22;9505;50.882;5.350;2022-12-18T00:30:09;-8.10;99.90
18753;DHT22;9505;50.882;5.350;2022-12-18T00:32:35;-8.10;99.90
18753;DHT22;9505;50.882;5.350;2022-12-18T00:35:01;-8.20;99.90
18753;DHT22;9505;50.882;5.350;2022-12-18T00:37:26;-8.20;99.90
18753;DHT22;9505;50.882;5.350;2022-12-18T00:39:52;-8.30;99.90
18753;DHT22;9505;50.882;5.350;2022-12-18T00:42:17;-8.30;99.90
18753;DHT22;9505;50.882;5.350;2022-12-18T00:45:01;-8.30;99.90
18753;DHT22;9505;50.882;5.350;2022-12-18T00:47:27;-8.30;99.90
18753;DHT22;9505;50.882;5.350;2022-12-18T00:49:52;-8.30;99.90
18753;DHT22;9505;50.882;5.350;2022-12-18T00:52:18;-8.30;99.90
18753;DHT22;9505;50.882;5.350;2022-12-18T00:54:43;-8.30;99.90
18753;DHT22;9505;50.882;5.350;2022-12-18T00:57:09;-8.30;99.90
18753;DHT22;9505;50.882;5.350;2022-12-18T00:59:34;-8.30;99.90
18753;DHT22;9505;50.882;5.350;2022-12-18T01:02:00;-8.30;99.90
18753;DHT22;9505;50.882;5.350;2022-12-18T01:04:26;-8.20;99.90
18753;DHT22;9505;50.882;5.350;2022-12-18T01:06:51;-8.10;99.90
18753;DHT22;9505;50.882;5.350;2022-12-18T01:09:17;-8.20;99.90
18753;DHT22;9505;50.882;5.350;2022-12-18T01:11:42;-8.30;99.90
18753;DHT22;9505;50.882;5.350;2022-12-18T01:14:08;-8.30;99.90
18753;DHT22;9505;50.882;5.350;2022-12-18T01:16:34;-8.30;99.90
18753;DHT22;9505;50.882;5.350;2022-12-18T01:18:59;-8.40;99.90
18753;DHT22;9505;50.882;5.350;2022-12-18T01:21:25;-8.40;99.90
18753;DHT22;9505;50.882;5.350;2022-12-18T01:23:52;-8.40;99.90
18753;DHT22;9505;50.882;5.350;2022-12-18T01:26:18;-8.40;99.90
18753;DHT22;9505;50.882;5.350;2022-12-18T01:28:44;-8.50;99.90
18753;DHT22;9505;50.882;5.350;2022-12-18T01:31:14;-8.50;99.90
18753;DHT22;9505;50.882;5.350;2022-12-18T01:33:40;-8.40;99.90
18753;DHT22;9505;50.882;5.350;2022-12-18T01:36:06;-8.50;99.90
18753;DHT22;9505;50.882;5.350;2022-12-18T01:38:32;-8.50;99.90
18753;DHT22;9505;50.882;5.350;2022-12-18T01:41:01;-8.50;99.90
18753;DHT22;9505;50.882;5.350;2022-12-18T01:43:57;-8.60;99.90
18753;DHT22;9505;50.882;5.350;2022-12-18T01:46:26;-8.60;99.90
18753;DHT22;9505;50.882;5.350;2022-12-18T01:49:00;-8.60;99.90
18753;DHT22;9505;50.882;5.350;2022-12-18T01:51:27;-8.60;99.90
18753;DHT22;9505;50.882;5.350;2022-12-18T01:53:54;-8.60;99.90
18753;DHT22;9505;50.882;5.350;2022-12-18T01:56:21;-8.60;99.90
18753;DHT22;9505;50.882;5.350;2022-12-18T01:58:57;-8.70;99.90
18753;DHT22;9505;50.882;5.350;2022-12-18T02:01:24;-8.70;99.90
18753;DHT22;9505;50.882;5.350;2022-12-18T02:03:50;-8.70;99.90
18753;DHT22;9505;50.882;5.350;2022-12-18T02:09:12;-8.70;99.90
18753;DHT22;9505;50.882;5.350;2022-12-18T02:14:44;-8.70;99.90
18753;DHT22;9505;50.882;5.350;2022-12-18T02:17:27;-8.80;99.90
18753;DHT22;9505;50.882;5.350;2022-12-18T02:19:58;-8.80;99.90
18753;DHT22;9505;50.882;5.350;2022-12-18T02:23:01;-8.80;99.90
18753;DHT22;9505;50.882;5.350;2022-12-18T02:25:54;-8.70;99.90
18753;DHT22;9505;50.882;5.350;2022-12-18T02:28:30;-8.70;99.90
18753;DHT22;9505;50.882;5.350;2022-12-18T02:30:57;-8.70;99.90
18753;DHT22;9505;50.882;5.350;2022-12-18T02:33:26;-8.80;99.90
18753;DHT22;9505;50.882;5.350;2022-12-18T02:35:53;-8.70;99.90
18753;DHT22;9505;50.882;5.350;2022-12-18T02:38:20;-8.80;99.90
18753;DHT22;9505;50.882;5.350;2022-12-18T02:40:47;-8.80;99.90
18753;DHT22;9505;50.882;5.350;2022-12-18T02:43:15;-8.80;99.90
18753;DHT22;9505;50.882;5.350;2022-12-18T02:45:56;-8.80;99.90
18753;DHT22;9505;50.882;5.350;2022-12-18T02:48:28;-8.80;99.90
18753;DHT22;9505;50.882;5.350;2022-12-18T02:53:48;-8.80;99.90
18753;DHT22;9505;50.882;5.350;2022-12-18T02:56:21;-8.90;99.90
18753;DHT22;9505;50.882;5.350;2022-12-18T03:01:38;-8.90;99.90
18753;DHT22;9505;50.882;5.350;2022-12-18T03:04:12;-8.90;99.90
18753;DHT22;9505;50.882;5.350;2022-12-18T03:06:44;-9.00;99.90
18753;DHT22;9505;50.882;5.350;2022-12-18T03:09:20;-9.00;99.90
18753;DHT22;9505;50.882;5.350;2022-12-18T03:11:53;-9.10;99.90
18753;DHT22;9505;50.882;5.350;2022-12-18T03:14:40;-9.10;99.90
18753;DHT22;9505;50.882;5.350;2022-12-18T03:17:10;-9.10;99.90
18753;DHT22;9505;50.882;5.350;2022-12-18T03:19:37;-9.20;99.90
18753;DHT22;9505;50.882;5.350;2022-12-18T03:22:05;-9.20;99.90
18753;DHT22;9505;50.882;5.350;2022-12-18T03:24:33;-9.20;99.90
18753;DHT22;9505;50.882;5.350;2022-12-18T03:27:03;-9.30;99.90
18753;DHT22;9505;50.882;5.350;2022-12-18T03:29:48;-9.30;99.90
18753;DHT22;9505;50.882;5.350;2022-12-18T03:32:27;-9.30;99.90
18753;DHT22;9505;50.882;5.350;2022-12-18T03:34:57;-9.30;99.90
18753;DHT22;9505;50.882;5.350;2022-12-18T03:37:24;-9.20;99.90
18753;DHT22;9505;50.882;5.350;2022-12-18T03:39:50;-9.20;99.90
18753;DHT22;9505;50.882;5.350;2022-12-18T03:42:29;-9.20;99.90
18753;DHT22;9505;50.882;5.350;2022-12-18T03:52:57;-9.20;99.90
18753;DHT22;9505;50.882;5.350;2022-12-18T03:55:25;-9.20;99.90
18753;DHT22;9505;50.882;5.350;2022-12-18T03:57:53;-9.20;99.90
18753;DHT22;9505;50.882;5.350;2022-12-18T04:00:20;-9.20;99.90
18753;DHT22;9505;50.882;5.350;2022-12-18T04:02:53;-9.20;99.90
18753;DHT22;9505;50.882;5.350;2022-12-18T04:05:20;-9.20;99.90
18753;DHT22;9505;50.882;5.350;2022-12-18T04:07:48;-9.20;99.90
18753;DHT22;9505;50.882;5.350;2022-12-18T04:10:16;-9.20;99.90
18753;DHT22;9505;50.882;5.350;2022-12-18T04:12:42;-9.20;99.90
18753;DHT22;9505;50.882;5.350;2022-12-18T04:15:08;-9.20;99.90
18753;DHT22;9505;50.882;5.350;2022-12-18T04:17:34;-9.30;99.90
18753;DHT22;9505;50.882;5.350;2022-12-18T04:20:00;-9.30;99.90
18753;DHT22;9505;50.882;5.350;2022-12-18T04:22:26;-9.40;99.90
18753;DHT22;9505;50.882;5.350;2022-12-18T04:24:51;-9.40;99.90
18753;DHT22;9505;50.882;5.350;2022-12-18T04:27:17;-9.50;99.90
18753;DHT22;9505;50.882;5.350;2022-12-18T04:29:43;-9.50;99.90
18753;DHT22;9505;50.882;5.350;2022-12-18T04:32:08;-9.40;99.90
18753;DHT22;9505;50.882;5.350;2022-12-18T04:34:34;-9.40;99.90
18753;DHT22;9505;50.882;5.350;2022-12-18T04:37:00;-9.30;99.90
18753;DHT22;9505;50.882;5.350;2022-12-18T04:39:25;-9.30;99.90
18753;DHT22;9505;50.882;5.350;2022-12-18T04:41:51;-9.30;99.90
18753;DHT22;9505;50.882;5.350;2022-12-18T04:44:17;-9.30;99.90
18753;DHT22;9505;50.882;5.350;2022-12-18T04:46:42;-9.20;99.90
18753;DHT22;9505;50.882;5.350;2022-12-18T04:49:08;-9.20;99.90
18753;DHT22;9505;50.882;5.350;2022-12-18T04:51:36;-9.20;99.90
18753;DHT22;9505;50.882;5.350;2022-12-18T04:54:01;-9.30;99.90
18753;DHT22;9505;50.882;5.350;2022-12-18T04:56:27;-9.30;99.90
18753;DHT22;9505;50.882;5.350;2022-12-18T04:58:53;-9.40;99.90
18753;DHT22;9505;50.882;5.350;2022-12-18T05:01:18;-9.40;99.90
18753;DHT22;9505;50.882;5.350;2022-12-18T05:03:44;-9.40;99.90
18753;DHT22;9505;50.882;5.350;2022-12-18T05:06:10;-9.40;99.90
18753;DHT22;9505;50.882;5.350;2022-12-18T05:08:35;-9.40;99.90
18753;DHT22;9505;50.882;5.350;2022-12-18T05:11:06;-9.40;99.90
18753;DHT22;9505;50.882;5.350;2022-12-18T05:13:33;-9.40;99.90
18753;DHT22;9505;50.882;5.350;2022-12-18T05:15:59;-9.40;99.90
18753;DHT22;9505;50.882;5.350;2022-12-18T05:18:26;-9.40;99.90
18753;DHT22;9505;50.882;5.350;2022-12-18T05:20:52;-9.40;99.90
18753;DHT22;9505;50.882;5.350;2022-12-18T05:23:19;-9.30;99.90
18753;DHT22;9505;50.882;5.350;2022-12-18T05:25:53;-9.30;99.90
18753;DHT22;9505;50.882;5.350;2022-12-18T05:28:19;-9.30;99.90
18753;DHT22;9505;50.882;5.350;2022-12-18T05:30:53;-9.30;99.90
18753;DHT22;9505;50.882;5.350;2022-12-18T05:33:20;-9.20;99.90
18753;DHT22;9505;50.882;5.350;2022-12-18T05:35:51;-9.20;99.90
18753;DHT22;9505;50.882;5.350;2022-12-18T05:38:17;-9.10;99.90
18753;DHT22;9505;50.882;5.350;2022-12-18T05:40:43;-9.10;99.90
18753;DHT22;9505;50.882;5.350;2022-12-18T05:43:09;-9.20;99.90
18753;DHT22;9505;50.882;5.350;2022-12-18T05:45:37;-9.30;99.90
18753;DHT22;9505;50.882;5.350;2022-12-18T05:48:04;-9.30;99.90
18753;DHT22;9505;50.882;5.350;2022-12-18T05:50:29;-9.40;99.90
18753;DHT22;9505;50.882;5.350;2022-12-18T05:52:55;-9.40;99.90
18753;DHT22;9505;50.882;5.350;2022-12-18T05:55:20;-9.40;99.90
18753;DHT22;9505;50.882;5.350;2022-12-18T05:57:46;-9.30;99.90
18753;DHT22;9505;50.882;5.350;2022-12-18T06:00:12;-9.40;99.90
18753;DHT22;9505;50.882;5.350;2022-12-18T06:02:38;-9.40;99.90
18753;DHT22;9505;50.882;5.350;2022-12-18T06:05:04;-9.50;99.90
18753;DHT22;9505;50.882;5.350;2022-12-18T06:07:29;-9.50;99.90
18753;DHT22;9505;50.882;5.350;2022-12-18T06:09:55;-9.50;99.90
18753;DHT22;9505;50.882;5.350;2022-12-18T06:12:20;-9.50;99.90
18753;DHT22;9505;50.882;5.350;2022-12-18T06:14:46;-9.50;99.90
18753;DHT22;9505;50.882;5.350;2022-12-18T06:17:12;-9.50;99.90
18753;DHT22;9505;50.882;5.350;2022-12-18T06:19:37;-9.60;99.90
18753;DHT22;9505;50.882;5.350;2022-12-18T06:22:03;-9.60;99.90
18753;DHT22;9505;50.882;5.350;2022-12-18T06:24:29;-9.60;99.90
18753;DHT22;9505;50.882;5.350;2022-12-18T06:26:55;-9.70;99.90
18753;DHT22;9505;50.882;5.350;2022-12-18T06:29:21;-9.60;99.90
18753;DHT22;9505;50.882;5.350;2022-12-18T06:31:46;-9.70;99.90
18753;DHT22;9505;50.882;5.350;2022-12-18T06:34:12;-9.70;99.90
18753;DHT22;9505;50.882;5.350;2022-12-18T06:36:38;-9.70;99.90
18753;DHT22;9505;50.882;5.350;2022-12-18T06:39:03;-9.70;99.90
18753;DHT22;9505;50.882;5.350;2022-12-18T06:41:29;-9.60;99.90
18753;DHT22;9505;50.882;5.350;2022-12-18T06:43:54;-9.60;99.90
18753;DHT22;9505;50.882;5.350;2022-12-18T06:46:20;-9.60;99.90
18753;DHT22;9505;50.882;5.350;2022-12-18T06:48:50;-9.70;99.90
18753;DHT22;9505;50.882;5.350;2022-12-18T06:51:17;-9.70;99.90
18753;DHT22;9505;50.882;5.350;2022-12-18T06:53:43;-9.70;99.90
18753;DHT22;9505;50.882;5.350;2022-12-18T06:56:08;-9.70;99.90
18753;DHT22;9505;50.882;5.350;2022-12-18T06:58:34;-9.70;99.90
18753;DHT22;9505;50.882;5.350;2022-12-18T07:01:01;-9.70;99.90
18753;DHT22;9505;50.882;5.350;2022-12-18T07:03:27;-9.70;99.90
18753;DHT22;9505;50.882;5.350;2022-12-18T07:05:52;-9.80;99.90
18753;DHT22;9505;50.882;5.350;2022-12-18T07:08:18;-9.80;99.90
18753;DHT22;9505;50.882;5.350;2022-12-18T07:10:43;-9.80;99.90
18753;DHT22;9505;50.882;5.350;2022-12-18T07:13:09;-9.70;99.90
18753;DHT22;9505;50.882;5.350;2022-12-18T07:15:35;-9.60;99.90
18753;DHT22;9505;50.882;5.350;2022-12-18T07:18:01;-9.40;99.90
18753;DHT22;9505;50.882;5.350;2022-12-18T07:20:26;-9.10;99.90
18753;DHT22;9505;50.882;5.350;2022-12-18T07:22:52;-9.00;99.90
18753;DHT22;9505;50.882;5.350;2022-12-18T07:25:18;-8.80;99.90
18753;DHT22;9505;50.882;5.350;2022-12-18T07:27:43;-8.70;99.90
18753;DHT22;9505;50.882;5.350;2022-12-18T07:30:09;-8.50;99.90
18753;DHT22;9505;50.882;5.350;2022-12-18T07:32:35;-8.40;99.90
18753;DHT22;9505;50.882;5.350;2022-12-18T07:35:00;-8.40;99.90
18753;DHT22;9505;50.882;5.350;2022-12-18T07:37:26;-8.40;99.90
18753;DHT22;9505;50.882;5.350;2022-12-18T07:39:52;-8.40;99.90
18753;DHT22;9505;50.882;5.350;2022-12-18T07:42:17;-8.30;99.90
18753;DHT22;9505;50.882;5.350;2022-12-18T07:44:59;-8.30;99.90
18753;DHT22;9505;50.882;5.350;2022-12-18T07:47:25;-8.30;99.90
18753;DHT22;9505;50.882;5.350;2022-12-18T07:49:51;-8.20;99.90
18753;DHT22;9505;50.882;5.350;2022-12-18T07:52:17;-8.00;99.90
18753;DHT22;9505;50.882;5.350;2022-12-18T07:54:42;-7.80;99.90
18753;DHT22;9505;50.882;5.350;2022-12-18T07:57:08;-7.80;99.90
18753;DHT22;9505;50.882;5.350;2022-12-18T07:59:34;-7.80;99.90
18753;DHT22;9505;50.882;5.350;2022-12-18T08:02:00;-7.80;99.90
18753;DHT22;9505;50.882;5.350;2022-12-18T08:04:25;-7.80;99.90
18753;DHT22;9505;50.882;5.350;2022-12-18T08:06:51;-7.70;99.90
18753;DHT22;9505;50.882;5.350;2022-12-18T08:09:17;-7.60;99.90
18753;DHT22;9505;50.882;5.350;2022-12-18T08:11:43;-7.60;99.90
18753;DHT22;9505;50.882;5.350;2022-12-18T08:14:08;-7.60;99.90
18753;DHT22;9505;50.882;5.350;2022-12-18T08:16:35;-7.40;99.90
18753;DHT22;9505;50.882;5.350;2022-12-18T08:19:00;-7.30;99.90
18753;DHT22;9505;50.882;5.350;2022-12-18T08:21:28;-7.20;99.90
18753;DHT22;9505;50.882;5.350;2022-12-18T08:23:56;-6.90;99.90
18753;DHT22;9505;50.882;5.350;2022-12-18T08:26:23;-6.80;99.90
18753;DHT22;9505;50.882;5.350;2022-12-18T08:28:49;-6.60;99.90
18753;DHT22;9505;50.882;5.350;2022-12-18T08:31:15;-6.40;99.90
18753;DHT22;9505;50.882;5.350;2022-12-18T08:33:41;-6.30;99.90
18753;DHT22;9505;50.882;5.350;2022-12-18T08:36:08;-6.00;99.90
18753;DHT22;9505;50.882;5.350;2022-12-18T08:38:34;-5.70;99.90
18753;DHT22;9505;50.882;5.350;2022-12-18T08:41:00;-5.50;99.90
18753;DHT22;9505;50.882;5.350;2022-12-18T08:43:26;-5.30;99.90
18753;DHT22;9505;50.882;5.350;2022-12-18T08:46:11;-5.10;99.90
18753;DHT22;9505;50.882;5.350;2022-12-18T08:48:37;-4.80;99.90
18753;DHT22;9505;50.882;5.350;2022-12-18T08:51:03;-4.50;99.90
18753;DHT22;9505;50.882;5.350;2022-12-18T08:53:29;-4.30;99.90
18753;DHT22;9505;50.882;5.350;2022-12-18T08:55:56;-4.00;99.90
18753;DHT22;9505;50.882;5.350;2022-12-18T08:58:22;-3.60;99.90
18753;DHT22;9505;50.882;5.350;2022-12-18T09:00:47;-3.20;99.90
18753;DHT22;9505;50.882;5.350;2022-12-18T09:03:14;-3.10;99.90
18753;DHT22;9505;50.882;5.350;2022-12-18T09:05:41;-2.90;99.90
18753;DHT22;9505;50.882;5.350;2022-12-18T09:08:07;-2.90;99.90
18753;DHT22;9505;50.882;5.350;2022-12-18T09:10:33;-2.90;99.90
18753;DHT22;9505;50.882;5.350;2022-12-18T09:12:58;-3.00;99.90
18753;DHT22;9505;50.882;5.350;2022-12-18T09:15:24;-3.10;99.90
18753;DHT22;9505;50.882;5.350;2022-12-18T09:17:49;-3.10;99.90
18753;DHT22;9505;50.882;5.350;2022-12-18T09:20:16;-3.10;99.90
18753;DHT22;9505;50.882;5.350;2022-12-18T09:22:42;-3.10;99.90
18753;DHT22;9505;50.882;5.350;2022-12-18T09:25:07;-3.00;99.90
18753;DHT22;9505;50.882;5.350;2022-12-18T09:27:34;-2.90;99.90
18753;DHT22;9505;50.882;5.350;2022-12-18T09:30:00;-2.80;99.90
18753;DHT22;9505;50.882;5.350;2022-12-18T09:32:25;-2.70;99.90
18753;DHT22;9505;50.882;5.350;2022-12-18T09:34:51;-2.70;99.90
18753;DHT22;9505;50.882;5.350;2022-12-18T09:37:17;-2.70;99.90
18753;DHT22;9505;50.882;5.350;2022-12-18T09:39:43;-2.60;99.90
18753;DHT22;9505;50.882;5.350;2022-12-18T09:42:21;-2.50;99.90
18753;DHT22;9505;50.882;5.350;2022-12-18T09:44:53;-2.40;99.90
18753;DHT22;9505;50.882;5.350;2022-12-18T09:47:32;-2.30;99.90
18753;DHT22;9505;50.882;5.350;2022-12-18T09:50:02;-2.00;99.90
18753;DHT22;9505;50.882;5.350;2022-12-18T09:52:41;-1.80;99.90
18753;DHT22;9505;50.882;5.350;2022-12-18T09:57:53;-1.70;99.90
18753;DHT22;9505;50.882;5.350;2022-12-18T10:00:22;-1.90;99.90
18753;DHT22;9505;50.882;5.350;2022-12-18T10:02:50;-1.90;99.90
18753;DHT22;9505;50.882;5.350;2022-12-18T10:05:24;-1.90;99.90
18753;DHT22;9505;50.882;5.350;2022-12-18T10:10:51;-1.90;99.90
18753;DHT22;9505;50.882;5.350;2022-12-18T10:13:39;-1.90;99.90
18753;DHT22;9505;50.882;5.350;2022-12-18T10:16:19;-1.70;99.90
18753;DHT22;9505;50.882;5.350;2022-12-18T10:26:43;-1.70;99.90
18753;DHT22;9505;50.882;5.350;2022-12-18T10:29:13;-1.70;99.90
18753;DHT22;9505;50.882;5.350;2022-12-18T10:31:39;-1.70;99.90
18753;DHT22;9505;50.882;5.350;2022-12-18T10:34:13;-1.60;99.90
18753;DHT22;9505;50.882;5.350;2022-12-18T10:36:39;-1.60;99.90
18753;DHT22;9505;50.882;5.350;2022-12-18T10:39:19;-1.50;99.90
18753;DHT22;9505;50.882;5.350;2022-12-18T10:41:45;-1.50;99.90
18753;DHT22;9505;50.882;5.350;2022-12-18T10:44:22;-1.50;99.90
18753;DHT22;9505;50.882;5.350;2022-12-18T10:47:03;-1.40;99.90
18753;DHT22;9505;50.882;5.350;2022-12-18T10:49:33;-1.40;99.90
18753;DHT22;9505;50.882;5.350;2022-12-18T10:52:20;-1.30;99.90
18753;DHT22;9505;50.882;5.350;2022-12-18T10:54:59;-1.20;99.90
18753;DHT22;9505;50.882;5.350;2022-12-18T10:59:58;-1.20;99.90
18753;DHT22;9505;50.882;5.350;2022-12-18T11:02:34;-1.30;99.90
18753;DHT22;9505;50.882;5.350;2022-12-18T11:05:00;-1.20;99.90
18753;DHT22;9505;50.882;5.350;2022-12-18T11:07:46;-1.20;99.90
18753;DHT22;9505;50.882;5.350;2022-12-18T11:10:16;-1.20;99.90
18753;DHT22;9505;50.882;5.350;2022-12-18T11:12:43;-1.50;99.90
18753;DHT22;9505;50.882;5.350;2022-12-18T11:15:19;-1.30;99.90
18753;DHT22;9505;50.882;5.350;2022-12-18T11:17:48;-1.20;99.90
18753;DHT22;9505;50.882;5.350;2022-12-18T11:20:31;-1.20;99.90
18753;DHT22;9505;50.882;5.350;2022-12-18T11:23:00;-1.10;99.90
18753;DHT22;9505;50.882;5.350;2022-12-18T11:25:29;-1.10;99.90
18753;DHT22;9505;50.882;5.350;2022-12-18T11:28:01;-1.00;99.90
18753;DHT22;9505;50.882;5.350;2022-12-18T11:30:32;-0.90;99.90
18753;DHT22;9505;50.882;5.350;2022-12-18T11:35:53;-0.60;99.90
18753;DHT22;9505;50.882;5.350;2022-12-18T11:38:38;-0.50;99.90
18753;DHT22;9505;50.882;5.350;2022-12-18T11:46:15;-0.40;99.90
18753;DHT22;9505;50.882;5.350;2022-12-18T11:48:52;-0.30;99.90
18753;DHT22;9505;50.882;5.350;2022-12-18T11:51:27;-0.20;99.90
18753;DHT22;9505;50.882;5.350;2022-12-18T11:53:54;-0.10;99.90
18753;DHT22;9505;50.882;5.350;2022-12-18T11:56:31;-0.10;99.90
18753;DHT22;9505;50.882;5.350;2022-12-18T12:01:44;0.00;99.90
18753;DHT22;9505;50.882;5.350;2022-12-18T12:04:22;0.10;99.90
18753;DHT22;9505;50.882;5.350;2022-12-18T12:13:25;0.10;99.90
18753;DHT22;9505;50.882;5.350;2022-12-18T12:26:23;0.10;99.90
18753;DHT22;9505;50.882;5.350;2022-12-18T12:29:10;0.00;99.90
18753;DHT22;9505;50.882;5.350;2022-12-18T12:40:27;0.10;99.90
18753;DHT22;9505;50.882;5.350;2022-12-18T12:43:07;0.00;99.90
18753;DHT22;9505;50.882;5.350;2022-12-18T12:45:40;0.20;99.90
18753;DHT22;9505;50.882;5.350;2022-12-18T12:48:25;0.20;99.90
18753;DHT22;9505;50.882;5.350;2022-12-18T12:50:53;0.20;99.90
18753;DHT22;9505;50.882;5.350;2022-12-18T12:53:34;0.20;99.90
18753;DHT22;9505;50.882;5.350;2022-12-18T12:56:01;0.30;99.90
18753;DHT22;9505;50.882;5.350;2022-12-18T12:58:36;0.40;99.90
18753;DHT22;9505;50.882;5.350;2022-12-18T13:01:12;0.40;99.90
18753;DHT22;9505;50.882;5.350;2022-12-18T13:06:52;0.40;99.90
18753;DHT22;9505;50.882;5.350;2022-12-18T13:09:20;0.50;99.90
18753;DHT22;9505;50.882;5.350;2022-12-18T13:11:46;0.60;99.90
18753;DHT22;9505;50.882;5.350;2022-12-18T13:14:33;0.60;99.90
18753;DHT22;9505;50.882;5.350;2022-12-18T13:28:08;0.80;99.90
18753;DHT22;9505;50.882;5.350;2022-12-18T13:30:41;0.90;99.90
18753;DHT22;9505;50.882;5.350;2022-12-18T13:35:41;0.80;99.90
18753;DHT22;9505;50.882;5.350;2022-12-18T13:38:21;0.80;99.90
18753;DHT22;9505;50.882;5.350;2022-12-18T13:48:16;0.80;99.90
18753;DHT22;9505;50.882;5.350;2022-12-18T13:50:42;0.80;99.90
18753;DHT22;9505;50.882;5.350;2022-12-18T13:53:19;0.80;99.90
18753;DHT22;9505;50.882;5.350;2022-12-18T13:55:46;0.80;99.90
18753;DHT22;9505;50.882;5.350;2022-12-18T13:58:12;0.80;99.90
18753;DHT22;9505;50.882;5.350;2022-12-18T14:00:42;0.80;99.90
18753;DHT22;9505;50.882;5.350;2022-12-18T14:03:20;0.70;99.90
18753;DHT22;9505;50.882;5.350;2022-12-18T14:05:53;0.60;99.90
18753;DHT22;9505;50.882;5.350;2022-12-18T14:08:20;0.70;99.90
18753;DHT22;9505;50.882;5.350;2022-12-18T14:10:47;0.70;99.90
18753;DHT22;9505;50.882;5.350;2022-12-18T14:15:49;0.60;99.90
18753;DHT22;9505;50.882;5.350;2022-12-18T14:18:29;0.60;99.90
18753;DHT22;9505;50.882;5.350;2022-12-18T14:21:00;0.50;99.90
18753;DHT22;9505;50.882;5.350;2022-12-18T14:23:35;0.50;99.90
18753;DHT22;9505;50.882;5.350;2022-12-18T14:26:03;0.40;99.90
18753;DHT22;9505;50.882;5.350;2022-12-18T14:28:44;0.30;99.90
18753;DHT22;9505;50.882;5.350;2022-12-18T14:31:21;0.40;99.90
18753;DHT22;9505;50.882;5.350;2022-12-18T14:33:47;0.40;99.90
18753;DHT22;9505;50.882;5.350;2022-12-18T14:36:16;0.50;99.90
18753;DHT22;9505;50.882;5.350;2022-12-18T14:38:42;0.60;99.90
18753;DHT22;9505;50.882;5.350;2022-12-18T14:41:13;0.70;99.90
18753;DHT22;9505;50.882;5.350;2022-12-18T14:43:40;0.80;99.90
18753;DHT22;9505;50.882;5.350;2022-12-18T14:46:33;0.90;99.90
18753;DHT22;9505;50.882;5.350;2022-12-18T14:49:02;1.00;99.90
18753;DHT22;9505;50.882;5.350;2022-12-18T14:51:32;1.10;99.90
18753;DHT22;9505;50.882;5.350;2022-12-18T14:54:03;0.90;99.90
18753;DHT22;9505;50.882;5.350;2022-12-18T14:56:42;0.80;99.90
18753;DHT22;9505;50.882;5.350;2022-12-18T14:59:22;0.80;99.90
18753;DHT22;9505;50.882;5.350;2022-12-18T15:02:18;0.80;99.90
18753;DHT22;9505;50.882;5.350;2022-12-18T15:04:45;0.70;99.90
18753;DHT22;9505;50.882;5.350;2022-12-18T15:09:37;0.50;99.90
18753;DHT22;9505;50.882;5.350;2022-12-18T15:12:03;0.50;99.90
18753;DHT22;9505;50.882;5.350;2022-12-18T15:14:40;0.30;99.90
18753;DHT22;9505;50.882;5.350;2022-12-18T15:17:18;0.30;99.90
18753;DHT22;9505;50.882;5.350;2022-12-18T15:19:45;0.30;99.90
18753;DHT22;9505;50.882;5.350;2022-12-18T15:22:26;0.30;99.90
18753;DHT22;9505;50.882;5.350;2022-12-18T15:24:53;0.20;99.90
18753;DHT22;9505;50.882;5.350;2022-12-18T15:27:22;0.10;99.90
18753;DHT22;9505;50.882;5.350;2022-12-18T15:32:30;0.00;99.90
18753;DHT22;9505;50.882;5.350;2022-12-18T15:37:39;0.00;99.90
18753;DHT22;9505;50.882;5.350;2022-12-18T15:40:06;-0.10;99.90
18753;DHT22;9505;50.882;5.350;2022-12-18T15:42:32;0.00;99.90
18753;DHT22;9505;50.882;5.350;2022-12-18T15:45:16;0.00;99.90
18753;DHT22;9505;50.882;5.350;2022-12-18T15:47:41;0.00;99.90
18753;DHT22;9505;50.882;5.350;2022-12-18T15:50:08;0.00;99.90
18753;DHT22;9505;50.882;5.350;2022-12-18T15:52:40;0.00;99.90
18753;DHT22;9505;50.882;5.350;2022-12-18T15:55:12;0.00;99.90
18753;DHT22;9505;50.882;5.350;2022-12-18T15:57:56;0.10;99.90
18753;DHT22;9505;50.882;5.350;2022-12-18T16:00:22;0.10;99.90
18753;DHT22;9505;50.882;5.350;2022-12-18T16:02:48;0.20;99.90
18753;DHT22;9505;50.882;5.350;2022-12-18T16:05:15;0.30;99.90
18753;DHT22;9505;50.882;5.350;2022-12-18T16:07:42;0.30;99.90
18753;DHT22;9505;50.882;5.350;2022-12-18T16:10:08;0.40;99.90
18753;DHT22;9505;50.882;5.350;2022-12-18T16:12:33;0.40;99.90
18753;DHT22;9505;50.882;5.350;2022-12-18T16:14:59;0.50;99.90
18753;DHT22;9505;50.882;5.350;2022-12-18T16:17:25;0.60;99.90
18753;DHT22;9505;50.882;5.350;2022-12-18T16:19:50;0.60;99.90
18753;DHT22;9505;50.882;5.350;2022-12-18T16:22:22;0.70;99.90
18753;DHT22;9505;50.882;5.350;2022-12-18T16:24:49;0.70;99.90
18753;DHT22;9505;50.882;5.350;2022-12-18T16:27:15;0.70;99.90
18753;DHT22;9505;50.882;5.350;2022-12-18T16:29:41;0.90;99.90
18753;DHT22;9505;50.882;5.350;2022-12-18T16:32:08;0.90;99.90
18753;DHT22;9505;50.882;5.350;2022-12-18T16:34:35;0.90;99.90
18753;DHT22;9505;50.882;5.350;2022-12-18T16:37:05;0.90;99.90
18753;DHT22;9505;50.882;5.350;2022-12-18T16:39:32;0.90;99.90
18753;DHT22;9505;50.882;5.350;2022-12-18T16:41:59;0.90;99.90
18753;DHT22;9505;50.882;5.350;2022-12-18T16:44:24;0.90;99.90
18753;DHT22;9505;50.882;5.350;2022-12-18T16:46:50;0.90;99.90
18753;DHT22;9505;50.882;5.350;2022-12-18T16:49:17;0.80;99.90
18753;DHT22;9505;50.882;5.350;2022-12-18T16:51:44;0.70;99.90
18753;DHT22;9505;50.882;5.350;2022-12-18T16:54:10;0.60;99.90
18753;DHT22;9505;50.882;5.350;2022-12-18T16:56:36;0.60;99.90
18753;DHT22;9505;50.882;5.350;2022-12-18T16:59:02;0.60;99.90
18753;DHT22;9505;50.882;5.350;2022-12-18T17:01:29;0.60;99.90
18753;DHT22;9505;50.882;5.350;2022-12-18T17:04:03;0.60;99.90
18753;DHT22;9505;50.882;5.350;2022-12-18T17:06:31;0.70;99.90
18753;DHT22;9505;50.882;5.350;2022-12-18T17:08:59;0.70;99.90
18753;DHT22;9505;50.882;5.350;2022-12-18T17:11:26;0.60;99.90
18753;DHT22;9505;50.882;5.350;2022-12-18T17:13:52;0.70;99.90
18753;DHT22;9505;50.882;5.350;2022-12-18T17:16:18;0.70;99.90
18753;DHT22;9505;50.882;5.350;2022-12-18T17:18:44;0.70;99.90
18753;DHT22;9505;50.882;5.350;2022-12-18T17:21:10;0.70;99.90
18753;DHT22;9505;50.882;5.350;2022-12-18T17:23:36;0.70;99.90
18753;DHT22;9505;50.882;5.350;2022-12-18T17:26:03;0.70;99.90
18753;DHT22;9505;50.882;5.350;2022-12-18T17:28:31;0.70;99.90
18753;DHT22;9505;50.882;5.350;2022-12-18T17:30:57;0.70;99.90
18753;DHT22;9505;50.882;5.350;2022-12-18T17:33:24;0.70;99.90
18753;DHT22;9505;50.882;5.350;2022-12-18T17:35:49;0.70;99.90
18753;DHT22;9505;50.882;5.350;2022-12-18T17:38:15;0.80;99.90
18753;DHT22;9505;50.882;5.350;2022-12-18T17:40:41;0.80;99.90
18753;DHT22;9505;50.882;5.350;2022-12-18T17:43:08;0.80;99.90
18753;DHT22;9505;50.882;5.350;2022-12-18T17:45:37;0.80;99.90
18753;DHT22;9505;50.882;5.350;2022-12-18T17:48:04;0.80;99.90